Terminal Aerodrome Forecast
Issued by NWS Portland, ME

Home | Current Version | Previous Version | Text Only | Print | Product List | Glossary On
Versions: 1 2 3 4 5 6 7 8 9 10 11 12 13 14 15
000
FTUS41 KGYX 030525
TAFPWM
TAF
KPWM 030525Z 0306/0406 32010G16KT P6SM SKC
     FM030800 30004KT P6SM SKC
     FM031800 18007KT P6SM SCT100 BKN200
     FM040100 18010G18KT 3SM -SN BR OVC020=

USA.gov is the U.S. government's official web portal to all federal, state and local government web resources and services.